This is the latest recevied weather packets stored in our database for station/object Ad4UU. If no packets are shown the sender has not sent any weather packets the latest 10 day(s).
| Time | Temp. | Humidity | Pressure | Rain* | Wind** | Luminosity | Snow |
|---|---|---|---|---|---|---|---|
| 1777723257 | 22.22° C | 94% | 1010.6 hPa | 0 mm | - | - | - |
| 1777722032 | 21.67° C | 96% | 1010.6 hPa | 0 mm | - | - | - |
| 1777720831 | 21.11° C | 97% | 1010.7 hPa | 0 mm | - | - | - |
| 1777720231 | 21.11° C | 97% | 1010.7 hPa | 0 mm | - | - | - |
| 1777719650 | 21.11° C | 97% | 1010.8 hPa | 0 mm | - | - | - |
| 1777717866 | 21.11° C | 97% | 1010.5 hPa | 0 mm | - | - | - |
| 1777715147 | 21.11° C | 96% | 1010.3 hPa | 0 mm | - | - | - |
| 1777710929 | 20.56° C | 97% | 1010.9 hPa | 0 mm | - | - | - |
| 1777710331 | 20° C | 97% | 1011 hPa | 0 mm | - | - | - |
| 1777710033 | 20° C | 97% | 1011.1 hPa | 0 mm | - | - | - |
| 1777708849 | 19.44° C | 97% | 1011.6 hPa | 0 mm | - | - | - |
| 1777707959 | 19.44° C | 97% | 1011.9 hPa | 0 mm | - | - | - |
| 1777707041 | 19.44° C | 96% | 1012.2 hPa | 0 mm | - | - | - |
| 1777704353 | 19.44° C | 96% | 1012 hPa | 0 mm | - | - | - |
| 1777704031 | 19.44° C | 96% | 1012.2 hPa | 0 mm | - | - | - |
| 1777699848 | 20° C | 94% | 1012.8 hPa | 0 mm | - | - | - |
| 1777698949 | 20° C | 94% | 1012.7 hPa | 0 mm | - | - | - |
| 1777696534 | 20.56° C | 93% | 1012.6 hPa | 0 mm | - | - | - |
| 1777695932 | 20.56° C | 93% | 1012.6 hPa | 0 mm | - | - | - |
| 1777694733 | 20.56° C | 91% | 1012.7 hPa | 0 mm | - | - | - |
| 1777693232 | 21.11° C | 90% | 1012.7 hPa | 0 mm | - | - | - |
| 1777689631 | 21.11° C | 89% | 1012.8 hPa | 0 mm | - | - | - |
| 1777688154 | 22.78° C | 86% | 1012.8 hPa | 0 mm | - | - | - |
| 1777687531 | 22.78° C | 85% | 1012.6 hPa | 0 mm | - | - | - |
| 1777685132 | 23.89° C | 82% | 1012.2 hPa | 0 mm | - | - | - |
* Rain latest hour (hover to see other rain measurements)
** Current wind speed in m/s (hover to see current wind gust speed)